Time;durP1;ratioP1;P1;durP2;ratioP2;P2;SDS_P1;SDS_P2;PMS_P1;PMS_P2;Temp;Humidity;BMP_temperature;BMP_pressure;BME280_temperature;BME280_humidity;BME280_pressure;Samples;Min_cycle;Max_cycle;Signal;HPM_P1;HPM_P2
2022/05/03 00:00:55;;;;;;;110.57;19.53;;;;;;;;;;4952904;28;20190;-70
2022/05/03 00:03:28;;;;;;;91.33;16.67;;;;;;;;;;4957336;28;20745;-70
2022/05/03 00:06:04;;;;;;;97.60;17.47;;;;;;;;;;4954979;28;20225;-70
2022/05/03 00:08:41;;;;;;;80.60;14.97;;;;;;;;;;4952096;28;20699;-71
2022/05/03 00:11:10;;;;;;;103.67;19.03;;;;;;;;;;4952565;28;20210;-70
2022/05/03 00:13:56;;;;;;;101.60;18.00;;;;;;;;;;4956996;28;20217;-70
2022/05/03 00:16:23;;;;;;;90.00;16.07;;;;;;;;;;4946048;28;20221;-70
2022/05/03 00:18:49;;;;;;;83.07;14.47;;;;;;;;;;4957675;28;20182;-70
2022/05/03 00:21:16;;;;;;;107.37;18.87;;;;;;;;;;4950591;28;20265;-70
2022/05/03 00:23:42;;;;;;;62.30;11.50;;;;;;;;;;4953332;28;20210;-70
2022/05/03 00:26:08;;;;;;;100.40;18.00;;;;;;;;;;4963700;28;20210;-70
2022/05/03 00:28:36;;;;;;;107.43;19.20;;;;;;;;;;4956833;28;20242;-70
2022/05/03 00:31:02;;;;;;;90.93;16.63;;;;;;;;;;4941549;28;20186;-69
2022/05/03 00:33:29;;;;;;;134.40;22.90;;;;;;;;;;4957458;28;20235;-70
2022/05/03 00:35:55;;;;;;;64.13;12.40;;;;;;;;;;4961717;28;20753;-70
2022/05/03 00:38:21;;;;;;;120.63;20.83;;;;;;;;;;4954450;28;20391;-70
2022/05/03 00:40:49;;;;;;;104.67;18.47;;;;;;;;;;4951958;28;20234;-70
2022/05/03 00:43:18;;;;;;;136.83;24.03;;;;;;;;;;4958785;28;20656;-70
2022/05/03 00:45:50;;;;;;;67.53;12.07;;;;;;;;;;4953990;28;20198;-70
2022/05/03 00:48:34;;;;;;;69.47;12.30;;;;;;;;;;4953240;28;20224;-70
2022/05/03 00:51:12;;;;;;;76.50;14.73;;;;;;;;;;4957172;28;20276;-70
2022/05/03 00:53:57;;;;;;;67.87;12.50;;;;;;;;;;4955886;28;20813;-70
2022/05/03 00:56:23;;;;;;;71.93;13.10;;;;;;;;;;4960782;28;20205;-70
2022/05/03 00:59:01;;;;;;;89.80;16.37;;;;;;;;;;4956778;28;20724;-70
2022/05/03 01:01:32;;;;;;;62.77;11.47;;;;;;;;;;4957392;28;20220;-70
2022/05/03 01:04:16;;;;;;;87.57;15.53;;;;;;;;;;4954303;28;20228;-70
2022/05/03 01:06:56;;;;;;;107.53;19.07;;;;;;;;;;4955071;28;20230;-70
2022/05/03 01:09:48;;;;;;;132.67;23.07;;;;;;;;;;4949779;28;20222;-70
2022/05/03 01:12:24;;;;;;;40.80;8.13;;;;;;;;;;4949017;28;20592;-69
2022/05/03 01:15:09;;;;;;;90.93;16.63;;;;;;;;;;4959487;28;20777;-69
2022/05/03 01:17:54;;;;;;;57.23;11.17;;;;;;;;;;4960138;28;20257;-69
2022/05/03 01:20:30;;;;;;;112.73;20.40;;;;;;;;;;4950172;28;20214;-69
2022/05/03 01:23:15;;;;;;;75.13;14.17;;;;;;;;;;4952791;28;20218;-69
2022/05/03 01:25:55;;;;;;;74.40;13.87;;;;;;;;;;4954579;28;20304;-69
2022/05/03 01:28:31;;;;;;;143.30;26.27;;;;;;;;;;4952384;28;20233;-69
2022/05/03 01:30:58;;;;;;;116.00;22.47;;;;;;;;;;4953046;28;20190;-69
2022/05/03 01:33:34;;;;;;;79.27;15.03;;;;;;;;;;4936426;28;20586;-69
2022/05/03 01:36:01;;;;;;;100.17;22.40;;;;;;;;;;4935530;28;20241;-70
2022/05/03 01:38:38;;;;;;;75.17;15.33;;;;;;;;;;4935698;28;20226;-69
2022/05/03 01:41:18;;;;;;;112.10;27.80;;;;;;;;;;4929295;28;20214;-69
2022/05/03 01:43:52;;;;;;;109.43;49.50;;;;;;;;;;4937026;28;20218;-69
2022/05/03 01:46:28;;;;;;;102.03;20.50;;;;;;;;;;4936771;28;20191;-69
2022/05/03 01:51:46;;;;;;;119.90;22.50;;;;;;;;;;4953418;28;20237;-69
2022/05/03 01:54:15;;;;;;;94.23;18.30;;;;;;;;;;4950762;28;20314;-69
2022/05/03 01:56:44;;;;;;;65.13;12.90;;;;;;;;;;4959924;28;20736;-69
2022/05/03 01:59:27;;;;;;;94.60;18.17;;;;;;;;;;4951856;28;21199;-69
2022/05/03 02:01:57;;;;;;;85.27;17.07;;;;;;;;;;4957293;28;20222;-69
2022/05/03 02:04:26;;;;;;;100.43;18.90;;;;;;;;;;4952622;28;20226;-69
2022/05/03 02:07:02;;;;;;;101.73;19.60;;;;;;;;;;4957118;28;20194;-69
2022/05/03 02:09:47;;;;;;;88.93;17.00;;;;;;;;;;4952853;28;20676;-69
2022/05/03 02:12:14;;;;;;;92.13;17.67;;;;;;;;;;4952235;28;20704;-69
2022/05/03 02:14:54;;;;;;;70.07;14.07;;;;;;;;;;4955299;28;20218;-69
2022/05/03 02:17:39;;;;;;;158.40;29.33;;;;;;;;;;4951432;28;20217;-69
2022/05/03 02:20:12;;;;;;;66.80;14.00;;;;;;;;;;4957005;28;20214;-69
2022/05/03 02:22:57;;;;;;;103.43;19.80;;;;;;;;;;4957060;28;20233;-69
2022/05/03 02:25:24;;;;;;;139.87;25.90;;;;;;;;;;4948018;28;20807;-69
2022/05/03 02:28:03;;;;;;;74.47;14.57;;;;;;;;;;4953862;28;20931;-69
2022/05/03 02:30:33;;;;;;;73.97;14.43;;;;;;;;;;4951549;28;20249;-69
2022/05/03 02:32:59;;;;;;;79.00;15.60;;;;;;;;;;4960374;28;20214;-69
2022/05/03 02:35:31;;;;;;;88.43;16.97;;;;;;;;;;4950607;28;20218;-69
2022/05/03 02:37:58;;;;;;;80.90;16.40;;;;;;;;;;4958511;28;20214;-69
2022/05/03 02:40:27;;;;;;;125.33;23.90;;;;;;;;;;4932288;28;20217;-69
2022/05/03 02:42:54;;;;;;;61.83;12.37;;;;;;;;;;4956516;28;20225;-69
2022/05/03 02:45:20;;;;;;;85.27;16.30;;;;;;;;;;4950985;28;20829;-69
2022/05/03 02:48:07;;;;;;;75.43;15.00;;;;;;;;;;4956532;28;20246;-69
2022/05/03 02:50:50;;;;;;;65.43;12.87;;;;;;;;;;4953598;28;20214;-69
2022/05/03 02:53:31;;;;;;;69.47;13.70;;;;;;;;;;4947268;28;20269;-69
2022/05/03 02:56:03;;;;;;;109.37;21.03;;;;;;;;;;4953800;28;20316;-69
2022/05/03 02:58:48;;;;;;;84.53;16.17;;;;;;;;;;4953892;28;20244;-69
2022/05/03 03:04:16;;;;;;;105.50;20.30;;;;;;;;;;4953409;28;20197;-69
2022/05/03 03:06:43;;;;;;;88.37;16.73;;;;;;;;;;4954599;28;20190;-69
2022/05/03 03:09:15;;;;;;;106.70;20.67;;;;;;;;;;4955463;28;20825;-69
2022/05/03 03:11:52;;;;;;;70.53;13.40;;;;;;;;;;4954414;28;20304;-69
2022/05/03 03:14:25;;;;;;;107.73;19.50;;;;;;;;;;4952798;28;20742;-69
2022/05/03 03:16:55;;;;;;;68.70;12.90;;;;;;;;;;4949606;28;20218;-69
2022/05/03 03:19:24;;;;;;;73.63;14.13;;;;;;;;;;4950928;28;22082;-69
2022/05/03 03:21:51;;;;;;;85.33;15.93;;;;;;;;;;4954069;28;20604;-69
2022/05/03 03:24:18;;;;;;;70.97;13.07;;;;;;;;;;4956049;28;20565;-69
2022/05/03 03:26:46;;;;;;;108.03;19.33;;;;;;;;;;4953754;28;20288;-69
2022/05/03 03:29:13;;;;;;;73.20;13.43;;;;;;;;;;4958380;28;20233;-69
2022/05/03 03:31:41;;;;;;;59.90;11.33;;;;;;;;;;4927895;28;20298;-69
2022/05/03 03:34:07;;;;;;;83.17;15.73;;;;;;;;;;4948474;28;20234;-69
2022/05/03 03:36:33;;;;;;;124.30;22.53;;;;;;;;;;4946396;28;20194;-70
2022/05/03 03:38:59;;;;;;;146.03;29.63;;;;;;;;;;4958164;28;20221;-69
2022/05/03 03:41:25;;;;;;;160.87;35.00;;;;;;;;;;4953347;28;20206;-69
2022/05/03 03:43:52;;;;;;;65.13;15.10;;;;;;;;;;4951067;28;20726;-69
2022/05/03 03:46:18;;;;;;;124.53;26.80;;;;;;;;;;4950326;28;20214;-69
2022/05/03 03:48:45;;;;;;;95.67;20.37;;;;;;;;;;4946920;28;20175;-69
2022/05/03 03:51:13;;;;;;;123.13;29.07;;;;;;;;;;4951056;28;20214;-70
2022/05/03 03:53:39;;;;;;;77.10;17.20;;;;;;;;;;4954673;28;20343;-70
2022/05/03 03:56:05;;;;;;;115.70;26.60;;;;;;;;;;4954789;28;20237;-69
2022/05/03 03:58:31;;;;;;;95.47;20.43;;;;;;;;;;4954915;28;20227;-69
2022/05/03 04:00:58;;;;;;;117.83;26.37;;;;;;;;;;4954450;28;20201;-69
2022/05/03 04:03:24;;;;;;;76.70;15.70;;;;;;;;;;4955713;28;20318;-69
2022/05/03 04:05:50;;;;;;;49.07;10.90;;;;;;;;;;4958953;28;20211;-69
2022/05/03 04:08:16;;;;;;;90.73;19.67;;;;;;;;;;4954610;28;20218;-70
2022/05/03 04:10:43;;;;;;;95.13;20.43;;;;;;;;;;4962304;28;20250;-69
2022/05/03 04:13:13;;;;;;;91.97;20.33;;;;;;;;;;4960412;28;20289;-69
2022/05/03 04:15:39;;;;;;;78.63;16.30;;;;;;;;;;4962898;28;20198;-70
2022/05/03 04:18:08;;;;;;;66.50;15.73;;;;;;;;;;4956449;28;20206;-70
2022/05/03 04:20:35;;;;;;;49.97;11.33;;;;;;;;;;4957657;28;20225;-70
2022/05/03 04:23:01;;;;;;;91.27;21.40;;;;;;;;;;4955841;28;20310;-69
2022/05/03 04:25:27;;;;;;;57.17;12.27;;;;;;;;;;4938549;28;20284;-69
2022/05/03 04:27:53;;;;;;;53.40;12.00;;;;;;;;;;4954483;28;20191;-70
2022/05/03 04:30:19;;;;;;;102.47;21.50;;;;;;;;;;4956385;28;20233;-70
2022/05/03 04:32:45;;;;;;;121.63;25.63;;;;;;;;;;4953823;28;20569;-70
2022/05/03 04:35:11;;;;;;;127.80;28.17;;;;;;;;;;4955201;28;20627;-69
2022/05/03 04:37:37;;;;;;;43.70;10.07;;;;;;;;;;4956337;28;20219;-69
2022/05/03 04:40:03;;;;;;;100.30;21.80;;;;;;;;;;4962748;28;20194;-69
2022/05/03 04:42:29;;;;;;;59.27;13.13;;;;;;;;;;4958038;28;20790;-69
2022/05/03 04:44:55;;;;;;;109.77;24.13;;;;;;;;;;4953497;28;20281;-69
2022/05/03 04:47:21;;;;;;;84.80;18.50;;;;;;;;;;4956673;28;20217;-69
2022/05/03 04:49:48;;;;;;;86.47;18.60;;;;;;;;;;4956150;28;20214;-69
2022/05/03 04:52:13;;;;;;;101.63;22.13;;;;;;;;;;4950218;28;20486;-69
2022/05/03 04:54:39;;;;;;;65.07;14.10;;;;;;;;;;4962652;28;20723;-69
2022/05/03 04:57:06;;;;;;;162.83;34.07;;;;;;;;;;4957182;28;20210;-70
2022/05/03 04:59:32;;;;;;;102.17;21.63;;;;;;;;;;4958636;28;22364;-69
2022/05/03 05:01:58;;;;;;;194.77;43.67;;;;;;;;;;4954058;28;20225;-69
2022/05/03 05:04:24;;;;;;;133.80;27.97;;;;;;;;;;4950393;28;20218;-69
2022/05/03 05:06:50;;;;;;;110.67;23.43;;;;;;;;;;4957718;28;20186;-70
2022/05/03 05:09:16;;;;;;;57.33;12.77;;;;;;;;;;4955946;28;20237;-69
2022/05/03 05:11:42;;;;;;;98.13;21.40;;;;;;;;;;4956179;28;20257;-69
2022/05/03 05:14:08;;;;;;;116.57;24.90;;;;;;;;;;4955031;28;20248;-69
2022/05/03 05:16:34;;;;;;;87.23;18.83;;;;;;;;;;4949811;28;20222;-69
2022/05/03 05:19:00;;;;;;;128.67;30.37;;;;;;;;;;4949571;28;20203;-67
2022/05/03 05:21:26;;;;;;;124.57;26.67;;;;;;;;;;4953320;28;20179;-66
2022/05/03 05:23:52;;;;;;;94.80;20.47;;;;;;;;;;4955707;28;20219;-66
2022/05/03 05:26:18;;;;;;;66.60;15.13;;;;;;;;;;4958249;28;20210;-66
2022/05/03 05:28:44;;;;;;;128.53;27.43;;;;;;;;;;4947537;28;20284;-66
2022/05/03 05:31:10;;;;;;;91.93;21.03;;;;;;;;;;4933218;28;20191;-65
2022/05/03 05:33:36;;;;;;;137.10;30.20;;;;;;;;;;4943755;28;20210;-67
2022/05/03 05:36:02;;;;;;;133.63;30.70;;;;;;;;;;4951616;28;21034;-67
2022/05/03 05:38:28;;;;;;;133.63;28.97;;;;;;;;;;4934771;28;20764;-67
2022/05/03 05:40:55;;;;;;;121.35;25.65;;;;;;;;;;4955116;28;20231;-67
2022/05/03 05:43:21;;;;;;;104.47;22.97;;;;;;;;;;4933738;28;20230;-67
2022/05/03 05:45:47;;;;;;;108.35;23.70;;;;;;;;;;4950234;28;20191;-67
2022/05/03 05:48:13;;;;;;;132.00;30.23;;;;;;;;;;4952130;28;20775;-67
2022/05/03 05:50:39;;;;;;;93.53;20.25;;;;;;;;;;4949553;28;20210;-67
2022/05/03 05:55:50;;;;;;;93.07;20.50;;;;;;;;;;4955333;28;20242;-67
2022/05/03 05:58:16;;;;;;;51.40;12.20;;;;;;;;;;4960115;28;20182;-67
2022/05/03 06:00:42;;;;;;;81.53;18.87;;;;;;;;;;4956812;28;20665;-68
2022/05/03 06:03:07;;;;;;;115.37;26.80;;;;;;;;;;4949423;28;20375;-68
2022/05/03 06:05:33;;;;;;;42.85;10.55;;;;;;;;;;4940747;28;20304;-67
2022/05/03 06:08:00;;;;;;;127.80;29.90;;;;;;;;;;4950330;28;20229;-68
2022/05/03 06:10:26;;;;;;;110.53;25.42;;;;;;;;;;4948066;28;20257;-68
2022/05/03 06:12:53;;;;;;;91.57;21.67;;;;;;;;;;4950919;28;20667;-67
2022/05/03 06:15:19;;;;;;;147.13;35.27;;;;;;;;;;4950536;28;20310;-67
2022/05/03 06:17:45;;;;;;;121.13;29.77;;;;;;;;;;4953699;28;20241;-67
2022/05/03 06:20:11;;;;;;;131.30;36.10;;;;;;;;;;4947284;28;20314;-67
2022/05/03 06:22:39;;;;;;;84.05;22.35;;;;;;;;;;4951262;28;20222;-67
2022/05/03 06:25:05;;;;;;;95.68;26.20;;;;;;;;;;4952852;28;20806;-66
2022/05/03 06:27:31;;;;;;;277.65;71.95;;;;;;;;;;4940452;28;21280;-69
2022/05/03 06:29:57;;;;;;;150.10;39.78;;;;;;;;;;4937604;28;20344;-69
2022/05/03 06:32:23;;;;;;;143.52;38.55;;;;;;;;;;4947722;28;20236;-68
2022/05/03 06:34:49;;;;;;;52.80;18.25;;;;;;;;;;4947872;28;20230;-74
2022/05/03 06:37:18;;;;;;;103.30;31.65;;;;;;;;;;4954132;28;20218;-68
2022/05/03 06:39:44;;;;;;;120.25;34.22;;;;;;;;;;4953727;28;20199;-71
2022/05/03 06:42:10;;;;;;;180.13;51.42;;;;;;;;;;4948084;28;20221;-67
2022/05/03 06:44:37;;;;;;;50.53;17.85;;;;;;;;;;4961812;28;20210;-70
2022/05/03 06:47:05;;;;;;;122.03;39.08;;;;;;;;;;4958406;28;20668;-70
2022/05/03 06:49:31;;;;;;;110.53;32.40;;;;;;;;;;4950022;28;20221;-71
2022/05/03 06:51:57;;;;;;;119.65;36.08;;;;;;;;;;4959825;28;20213;-72
2022/05/03 06:54:22;;;;;;;201.00;51.55;;;;;;;;;;4959974;28;20222;-73
2022/05/03 06:56:48;;;;;;;64.57;20.65;;;;;;;;;;4955614;28;20214;-72
2022/05/03 06:59:14;;;;;;;156.43;44.38;;;;;;;;;;4952079;28;20210;-69
2022/05/03 07:01:40;;;;;;;86.13;25.92;;;;;;;;;;4955696;28;20213;-71
2022/05/03 07:04:06;;;;;;;92.75;31.25;;;;;;;;;;4953796;28;20183;-68
2022/05/03 07:06:32;;;;;;;76.20;22.45;;;;;;;;;;4961966;28;20282;-69
2022/05/03 07:08:58;;;;;;;158.00;50.58;;;;;;;;;;4948919;28;20282;-66
2022/05/03 07:11:24;;;;;;;131.82;38.28;;;;;;;;;;4955533;28;20642;-67
2022/05/03 07:13:50;;;;;;;82.47;28.20;;;;;;;;;;4956212;28;20779;-67
2022/05/03 07:16:16;;;;;;;124.50;37.95;;;;;;;;;;4951240;28;20297;-67
2022/05/03 07:24:11;;;;;;;134.18;39.88;;;;;;;;;;4949494;28;20229;-70
2022/05/03 07:26:40;;;;;;;130.57;42.35;;;;;;;;;;4946196;28;20214;-70
2022/05/03 07:29:07;;;;;;;139.18;48.88;;;;;;;;;;4954347;28;20210;-71
2022/05/03 07:31:33;;;;;;;94.30;28.92;;;;;;;;;;4945922;28;20222;-71
2022/05/03 07:33:59;;;;;;;110.65;34.42;;;;;;;;;;4952393;28;20204;-68
2022/05/03 07:36:28;;;;;;;152.35;38.03;;;;;;;;;;4951848;28;20886;-71
2022/05/03 07:38:54;;;;;;;104.57;27.90;;;;;;;;;;4954845;28;20228;-70
2022/05/03 07:41:19;;;;;;;95.15;26.02;;;;;;;;;;4959887;28;20722;-70
2022/05/03 07:43:45;;;;;;;195.95;53.35;;;;;;;;;;4961068;28;20767;-72
2022/05/03 07:46:11;;;;;;;127.82;36.25;;;;;;;;;;4953649;28;20559;-73
2022/05/03 07:48:37;;;;;;;91.05;27.65;;;;;;;;;;4960455;28;20695;-71
2022/05/03 07:51:03;;;;;;;74.75;24.90;;;;;;;;;;4957042;28;20218;-71
2022/05/03 07:53:29;;;;;;;83.55;22.33;;;;;;;;;;4964434;28;20210;-71
2022/05/03 07:55:56;;;;;;;72.45;21.05;;;;;;;;;;4967490;28;20268;-72
2022/05/03 07:58:22;;;;;;;67.15;18.17;;;;;;;;;;4967388;28;20220;-68
2022/05/03 08:00:48;;;;;;;236.30;63.42;;;;;;;;;;4960621;28;20339;-71
2022/05/03 08:03:15;;;;;;;88.93;23.65;;;;;;;;;;4957774;28;20253;-72
2022/05/03 08:05:41;;;;;;;83.53;22.40;;;;;;;;;;4952854;28;20210;-71
2022/05/03 08:08:07;;;;;;;124.45;32.67;;;;;;;;;;4956931;28;20218;-71
2022/05/03 08:10:33;;;;;;;64.47;17.83;;;;;;;;;;4955843;28;20817;-71
2022/05/03 08:12:59;;;;;;;155.88;45.63;;;;;;;;;;4956349;28;20257;-70
2022/05/03 08:15:25;;;;;;;152.32;41.65;;;;;;;;;;4954065;28;20218;-72
2022/05/03 08:17:51;;;;;;;117.60;32.65;;;;;;;;;;4949156;28;20210;-71
2022/05/03 08:20:17;;;;;;;96.72;25.80;;;;;;;;;;4964121;28;20206;-71
2022/05/03 08:22:43;;;;;;;118.18;35.25;;;;;;;;;;4954120;28;20222;-72
2022/05/03 08:25:10;;;;;;;133.30;38.10;;;;;;;;;;4936850;28;20194;-71
2022/05/03 08:27:38;;;;;;;129.57;37.85;;;;;;;;;;4964623;28;20266;-71
2022/05/03 08:30:04;;;;;;;79.28;26.27;;;;;;;;;;4946982;28;20217;-71
2022/05/03 08:32:30;;;;;;;69.43;21.17;;;;;;;;;;4955611;28;20742;-71
2022/05/03 08:34:56;;;;;;;101.97;29.77;;;;;;;;;;4954105;28;20313;-71
2022/05/03 08:42:52;;;;;;;94.28;25.73;;;;;;;;;;4957909;28;20268;-70
2022/05/03 08:45:20;;;;;;;62.20;16.17;;;;;;;;;;4957571;28;20214;-70
2022/05/03 08:47:47;;;;;;;54.85;15.35;;;;;;;;;;4960387;28;20268;-70
2022/05/03 08:50:13;;;;;;;58.78;17.13;;;;;;;;;;4958490;28;20206;-71
2022/05/03 08:52:45;;;;;;;158.70;40.90;;;;;;;;;;4956871;28;20794;-70
2022/05/03 08:55:11;;;;;;;167.00;46.65;;;;;;;;;;4943313;28;20297;-71
2022/05/03 08:57:37;;;;;;;95.85;25.95;;;;;;;;;;4964747;28;20367;-71
2022/05/03 09:00:05;;;;;;;99.10;28.80;;;;;;;;;;4957573;28;20748;-70
2022/05/03 09:02:32;;;;;;;49.97;13.93;;;;;;;;;;4966136;28;20769;-70
2022/05/03 09:04:58;;;;;;;115.18;33.38;;;;;;;;;;4967888;28;20209;-71
2022/05/03 09:07:24;;;;;;;64.60;17.25;;;;;;;;;;4958880;28;21020;-71
2022/05/03 09:09:52;;;;;;;65.05;17.88;;;;;;;;;;4962554;28;20230;-71
2022/05/03 09:12:28;;;;;;;100.25;25.67;;;;;;;;;;4958700;28;20229;-71
2022/05/03 09:14:59;;;;;;;83.63;21.75;;;;;;;;;;4961472;28;20758;-71
2022/05/03 09:17:45;;;;;;;60.53;16.08;;;;;;;;;;4962432;28;20700;-71
2022/05/03 09:25:52;;;;;;;93.43;24.08;;;;;;;;;;4965917;28;20742;-71
2022/05/03 09:28:23;;;;;;;61.92;16.38;;;;;;;;;;4956092;28;20190;-69
2022/05/03 09:30:50;;;;;;;96.28;24.52;;;;;;;;;;4965222;28;20174;-70
2022/05/03 09:33:18;;;;;;;45.78;13.23;;;;;;;;;;4962502;28;20277;-69
2022/05/03 09:35:44;;;;;;;78.13;21.33;;;;;;;;;;4960429;28;20734;-69
2022/05/03 09:38:09;;;;;;;62.20;18.33;;;;;;;;;;4964795;28;20294;-69
2022/05/03 09:40:36;;;;;;;102.05;28.05;;;;;;;;;;4966677;28;20218;-69
2022/05/03 09:43:08;;;;;;;161.75;43.40;;;;;;;;;;4958083;28;20234;-69
2022/05/03 09:45:36;;;;;;;62.63;17.45;;;;;;;;;;4942954;28;20179;-71
2022/05/03 09:48:02;;;;;;;94.07;24.10;;;;;;;;;;4965905;28;20742;-70
2022/05/03 09:50:36;;;;;;;52.85;14.38;;;;;;;;;;4947290;28;20550;-71
2022/05/03 09:53:09;;;;;;;100.00;29.02;;;;;;;;;;4964316;28;20214;-71
2022/05/03 09:55:39;;;;;;;111.95;29.55;;;;;;;;;;4960069;28;20222;-71
2022/05/03 09:58:06;;;;;;;92.95;25.05;;;;;;;;;;4964124;28;20237;-71
2022/05/03 10:00:36;;;;;;;82.00;20.10;;;;;;;;;;4962175;28;20595;-71
2022/05/03 10:03:03;;;;;;;115.70;30.70;;;;;;;;;;4961157;28;20345;-71
2022/05/03 10:05:29;;;;;;;60.53;16.23;;;;;;;;;;4968695;28;20233;-71
2022/05/03 10:07:55;;;;;;;76.68;21.48;;;;;;;;;;4961663;28;20217;-71
2022/05/03 10:10:22;;;;;;;153.00;37.15;;;;;;;;;;4957449;28;20215;-71
2022/05/03 10:12:52;;;;;;;56.03;14.82;;;;;;;;;;4965068;28;20206;-71
2022/05/03 10:21:03;;;;;;;151.50;42.58;;;;;;;;;;4959966;28;20241;-71
2022/05/03 10:23:31;;;;;;;62.40;17.20;;;;;;;;;;4962497;28;20214;-71
2022/05/03 10:25:58;;;;;;;82.57;23.27;;;;;;;;;;4961586;28;20808;-71
2022/05/03 10:28:24;;;;;;;306.33;78.43;;;;;;;;;;4947585;28;20217;-71
2022/05/03 10:31:06;;;;;;;83.05;23.58;;;;;;;;;;4950036;28;20595;-69
2022/05/03 10:33:32;;;;;;;83.50;22.95;;;;;;;;;;4955848;28;23168;-77
2022/05/03 10:35:58;;;;;;;97.25;28.73;;;;;;;;;;4957034;28;20318;-72
2022/05/03 10:38:40;;;;;;;155.88;39.65;;;;;;;;;;4926566;28;20210;-69
2022/05/03 10:41:08;;;;;;;209.65;55.70;;;;;;;;;;4940779;28;20230;-67
2022/05/03 10:43:35;;;;;;;182.80;49.65;;;;;;;;;;4947043;28;20215;-68
2022/05/03 10:46:14;;;;;;;139.38;35.67;;;;;;;;;;4951600;28;20269;-67
2022/05/03 10:48:43;;;;;;;77.72;21.00;;;;;;;;;;4956731;28;20584;-67
2022/05/03 10:51:11;;;;;;;198.23;54.38;;;;;;;;;;4943598;28;20218;-67
2022/05/03 10:53:38;;;;;;;140.88;37.25;;;;;;;;;;4946049;28;20229;-67
2022/05/03 10:56:12;;;;;;;125.47;34.63;;;;;;;;;;4950414;28;20342;-66
2022/05/03 10:58:39;;;;;;;112.28;30.90;;;;;;;;;;4953470;28;20206;-66
2022/05/03 11:01:05;;;;;;;130.05;39.30;;;;;;;;;;4948519;28;20195;-67
2022/05/03 11:03:32;;;;;;;94.18;27.90;;;;;;;;;;4948337;28;20207;-71
2022/05/03 11:06:19;;;;;;;191.43;61.25;;;;;;;;;;4945976;28;20261;-71
2022/05/03 11:09:18;;;;;;;56.15;21.45;;;;;;;;;;4948113;28;20292;-69
2022/05/03 11:11:44;;;;;;;107.07;33.10;;;;;;;;;;4953536;28;20221;-69
2022/05/03 11:14:16;;;;;;;128.27;37.10;;;;;;;;;;4960391;28;20206;-69
2022/05/03 11:16:42;;;;;;;152.18;42.65;;;;;;;;;;4956858;28;20237;-69
2022/05/03 11:19:15;;;;;;;127.43;36.70;;;;;;;;;;4957026;28;20190;-68
2022/05/03 11:21:41;;;;;;;104.93;30.35;;;;;;;;;;4952337;28;20756;-69
2022/05/03 11:24:17;;;;;;;154.43;44.55;;;;;;;;;;4959424;28;20710;-69
2022/05/03 11:26:43;;;;;;;114.78;32.00;;;;;;;;;;4954594;28;20233;-70
2022/05/03 11:29:08;;;;;;;80.00;23.42;;;;;;;;;;4958919;28;20225;-70
2022/05/03 11:31:35;;;;;;;108.55;30.60;;;;;;;;;;4945050;28;20229;-70
2022/05/03 11:34:06;;;;;;;174.15;48.53;;;;;;;;;;4958083;28;20576;-70
2022/05/03 11:36:32;;;;;;;96.05;26.95;;;;;;;;;;4958535;28;20199;-69
2022/05/03 11:38:58;;;;;;;90.80;29.52;;;;;;;;;;4956962;28;20241;-68
2022/05/03 11:41:25;;;;;;;61.05;20.38;;;;;;;;;;4959997;28;20242;-70
2022/05/03 11:43:51;;;;;;;45.22;16.00;;;;;;;;;;4958847;28;20581;-70
2022/05/03 11:46:18;;;;;;;120.63;41.85;;;;;;;;;;4955553;28;20178;-67
2022/05/03 11:48:44;;;;;;;68.88;34.30;;;;;;;;;;4954284;28;20273;-67
2022/05/03 11:56:44;;;;;;;148.65;80.25;;;;;;;;;;4947510;28;20433;-67
2022/05/03 11:59:10;;;;;;;126.57;83.97;;;;;;;;;;4959050;28;20278;-66
2022/05/03 12:01:36;;;;;;;95.20;71.57;;;;;;;;;;4954397;28;21010;-69
2022/05/03 12:04:04;;;;;;;89.03;67.13;;;;;;;;;;4964551;28;20189;-67
2022/05/03 12:06:43;;;;;;;108.18;61.60;;;;;;;;;;4956262;28;20191;-67
2022/05/03 12:09:12;;;;;;;218.18;102.22;;;;;;;;;;4949105;28;20245;-68
2022/05/03 12:14:36;;;;;;;77.90;49.97;;;;;;;;;;4961050;28;20245;-67
2022/05/03 12:17:02;;;;;;;105.10;60.95;;;;;;;;;;4956679;28;20218;-68
2022/05/03 12:19:32;;;;;;;132.55;69.22;;;;;;;;;;4954451;28;20726;-68
2022/05/03 12:22:07;;;;;;;140.45;76.35;;;;;;;;;;4965600;28;20206;-70
2022/05/03 12:24:37;;;;;;;106.68;58.53;;;;;;;;;;4943745;28;20214;-68
2022/05/03 12:27:11;;;;;;;92.32;64.90;;;;;;;;;;4947941;28;20211;-68
2022/05/03 12:29:42;;;;;;;79.85;61.55;;;;;;;;;;4961249;28;20373;-68
2022/05/03 12:32:15;;;;;;;140.73;88.75;;;;;;;;;;4969323;28;20225;-70
2022/05/03 12:34:42;;;;;;;101.32;90.80;;;;;;;;;;4968020;28;20222;-70
2022/05/03 12:37:09;;;;;;;114.07;86.15;;;;;;;;;;4965909;28;20174;-69
2022/05/03 12:39:38;;;;;;;145.43;98.85;;;;;;;;;;4963776;28;20187;-68
2022/05/03 12:42:11;;;;;;;216.48;104.72;;;;;;;;;;4953948;28;20230;-68
2022/05/03 12:44:51;;;;;;;100.57;74.97;;;;;;;;;;4957411;28;20242;-70
2022/05/03 12:47:17;;;;;;;249.23;115.97;;;;;;;;;;4950515;28;20219;-70
2022/05/03 12:49:43;;;;;;;61.15;50.17;;;;;;;;;;4957765;28;20313;-69
2022/05/03 12:52:09;;;;;;;121.93;63.00;;;;;;;;;;4956422;28;20783;-70
2022/05/03 12:54:38;;;;;;;66.47;38.65;;;;;;;;;;4957095;28;20213;-63
2022/05/03 12:59:49;;;;;;;111.05;46.53;;;;;;;;;;4963508;28;21193;-64
2022/05/03 13:02:17;;;;;;;118.28;49.35;;;;;;;;;;4953981;28;20215;-64
2022/05/03 13:04:43;;;;;;;73.65;33.33;;;;;;;;;;4953731;28;20221;-64
2022/05/03 13:07:09;;;;;;;94.55;35.53;;;;;;;;;;4965869;28;20190;-64
2022/05/03 13:09:34;;;;;;;43.75;25.67;;;;;;;;;;4961797;28;20209;-63
2022/05/03 13:12:01;;;;;;;122.90;45.80;;;;;;;;;;4966636;28;20232;-64
2022/05/03 13:14:29;;;;;;;61.85;31.23;;;;;;;;;;4963190;28;20301;-64
2022/05/03 13:16:55;;;;;;;180.10;60.15;;;;;;;;;;4955653;28;20245;-64
2022/05/03 13:19:21;;;;;;;114.82;45.00;;;;;;;;;;4947759;28;21324;-63
2022/05/03 13:21:47;;;;;;;97.32;44.08;;;;;;;;;;4953145;28;20206;-64
2022/05/03 13:24:14;;;;;;;191.82;136.40;;;;;;;;;;4952094;28;20214;-64
2022/05/03 13:26:40;;;;;;;240.55;154.27;;;;;;;;;;4953621;28;20276;-64
2022/05/03 13:29:08;;;;;;;209.60;135.05;;;;;;;;;;4951193;28;20218;-64
2022/05/03 13:31:34;;;;;;;138.85;88.97;;;;;;;;;;4945582;28;20226;-64
2022/05/03 13:34:00;;;;;;;239.63;173.15;;;;;;;;;;4946756;28;20739;-63
2022/05/03 13:41:56;;;;;;;204.43;153.20;;;;;;;;;;4948178;28;20241;-64
2022/05/03 13:44:22;;;;;;;224.90;162.07;;;;;;;;;;4958763;28;20250;-64
2022/05/03 13:46:48;;;;;;;139.55;125.05;;;;;;;;;;4951358;28;20224;-66
2022/05/03 13:49:14;;;;;;;188.15;161.82;;;;;;;;;;4967558;28;20187;-64
2022/05/03 13:51:40;;;;;;;215.05;165.25;;;;;;;;;;4961453;28;20234;-65
2022/05/03 13:54:06;;;;;;;240.02;185.05;;;;;;;;;;4956637;28;20210;-65
2022/05/03 13:56:32;;;;;;;256.65;186.52;;;;;;;;;;4959711;28;20305;-64
2022/05/03 13:58:58;;;;;;;254.60;186.13;;;;;;;;;;4960407;28;20218;-64
2022/05/03 14:01:24;;;;;;;243.13;185.93;;;;;;;;;;4959523;28;20216;-64
2022/05/03 14:03:53;;;;;;;228.75;180.20;;;;;;;;;;4960817;28;20179;-64
2022/05/03 14:06:19;;;;;;;308.35;213.18;;;;;;;;;;4952951;28;20240;-65
2022/05/03 14:08:45;;;;;;;314.23;221.35;;;;;;;;;;4957527;28;20234;-64
2022/05/03 14:11:11;;;;;;;323.70;228.68;;;;;;;;;;4958937;28;20628;-64
2022/05/03 14:13:37;;;;;;;305.30;220.15;;;;;;;;;;4966895;28;20268;-64
2022/05/03 14:16:04;;;;;;;306.35;218.98;;;;;;;;;;4963984;28;20763;-64
2022/05/03 14:18:30;;;;;;;318.38;233.57;;;;;;;;;;4959916;28;20183;-64
2022/05/03 14:20:56;;;;;;;326.95;231.90;;;;;;;;;;4966945;28;20209;-65
2022/05/03 14:23:22;;;;;;;366.33;255.00;;;;;;;;;;4955798;28;20710;-65
2022/05/03 14:25:48;;;;;;;326.48;236.93;;;;;;;;;;4954122;28;20206;-64
2022/05/03 14:28:14;;;;;;;390.80;280.42;;;;;;;;;;4952169;28;20434;-71
2022/05/03 14:30:40;;;;;;;386.52;256.92;;;;;;;;;;4959048;28;20182;-71
2022/05/03 14:33:07;;;;;;;400.90;272.88;;;;;;;;;;4952570;28;21270;-73
2022/05/03 14:35:33;;;;;;;383.98;267.83;;;;;;;;;;4963279;28;20209;-73
2022/05/03 14:37:59;;;;;;;394.15;291.67;;;;;;;;;;4947990;28;20226;-72
2022/05/03 14:40:25;;;;;;;391.98;281.45;;;;;;;;;;4959498;28;20237;-72
2022/05/03 14:42:51;;;;;;;378.35;274.73;;;;;;;;;;4960867;28;20316;-73
2022/05/03 14:45:18;;;;;;;370.90;275.92;;;;;;;;;;4961493;28;20210;-73
2022/05/03 14:47:44;;;;;;;407.73;290.67;;;;;;;;;;4951129;28;20246;-72
2022/05/03 14:50:11;;;;;;;413.75;296.60;;;;;;;;;;4947985;28;20297;-72
2022/05/03 14:52:38;;;;;;;355.20;256.27;;;;;;;;;;4953627;28;20226;-73
2022/05/03 14:55:04;;;;;;;416.25;286.80;;;;;;;;;;4961662;28;20541;-72
2022/05/03 15:02:59;;;;;;;399.92;255.45;;;;;;;;;;4949561;28;20224;-72
2022/05/03 15:05:36;;;;;;;382.08;247.27;;;;;;;;;;4949721;28;20301;-73
2022/05/03 15:08:03;;;;;;;468.77;303.95;;;;;;;;;;4950228;28;20217;-72
2022/05/03 15:10:30;;;;;;;359.75;243.50;;;;;;;;;;4960004;28;20284;-72